sensor_id;sensor_type;location;lat;lon;timestamp;temperature;humidity
66522;SHT31;53349;53.538;8.584;2023-05-10T00:02:22;17.06;72.98
66522;SHT31;53349;53.538;8.584;2023-05-10T00:04:48;17.03;72.77
66522;SHT31;53349;53.538;8.584;2023-05-10T00:07:13;17.04;72.36
66522;SHT31;53349;53.538;8.584;2023-05-10T00:09:39;17.04;72.25
66522;SHT31;53349;53.538;8.584;2023-05-10T00:12:04;17.04;72.28
66522;SHT31;53349;53.538;8.584;2023-05-10T00:14:30;17.00;72.15
66522;SHT31;53349;53.538;8.584;2023-05-10T00:16:55;16.97;71.87
66522;SHT31;53349;53.538;8.584;2023-05-10T00:19:21;16.93;71.29
66522;SHT31;53349;53.538;8.584;2023-05-10T00:21:46;16.90;70.96
66522;SHT31;53349;53.538;8.584;2023-05-10T00:24:11;16.88;70.48
66522;SHT31;53349;53.538;8.584;2023-05-10T00:26:37;16.84;69.85
66522;SHT31;53349;53.538;8.584;2023-05-10T00:29:02;16.77;69.61
66522;SHT31;53349;53.538;8.584;2023-05-10T00:31:27;16.81;69.12
66522;SHT31;53349;53.538;8.584;2023-05-10T00:33:53;16.76;67.87
66522;SHT31;53349;53.538;8.584;2023-05-10T00:36:18;16.73;67.50
66522;SHT31;53349;53.538;8.584;2023-05-10T00:38:44;16.76;66.81
66522;SHT31;53349;53.538;8.584;2023-05-10T00:41:09;16.69;65.39
66522;SHT31;53349;53.538;8.584;2023-05-10T00:43:35;16.70;65.07
66522;SHT31;53349;53.538;8.584;2023-05-10T00:46:00;16.69;64.13
66522;SHT31;53349;53.538;8.584;2023-05-10T00:48:25;16.69;64.03
66522;SHT31;53349;53.538;8.584;2023-05-10T00:50:51;16.69;63.40
66522;SHT31;53349;53.538;8.584;2023-05-10T00:53:16;16.62;62.62
66522;SHT31;53349;53.538;8.584;2023-05-10T00:55:42;16.55;61.91
66522;SHT31;53349;53.538;8.584;2023-05-10T00:58:08;16.59;60.76
66522;SHT31;53349;53.538;8.584;2023-05-10T01:00:33;16.56;60.09
66522;SHT31;53349;53.538;8.584;2023-05-10T01:02:59;16.49;58.28
66522;SHT31;53349;53.538;8.584;2023-05-10T01:05:25;16.44;57.85
66522;SHT31;53349;53.538;8.584;2023-05-10T01:07:50;16.46;58.02
66522;SHT31;53349;53.538;8.584;2023-05-10T01:10:16;16.41;57.20
66522;SHT31;53349;53.538;8.584;2023-05-10T01:12:43;16.41;56.52
66522;SHT31;53349;53.538;8.584;2023-05-10T01:15:10;16.44;56.45
66522;SHT31;53349;53.538;8.584;2023-05-10T01:17:37;16.44;55.75
66522;SHT31;53349;53.538;8.584;2023-05-10T01:20:04;16.41;55.58
66522;SHT31;53349;53.538;8.584;2023-05-10T01:22:42;16.45;55.47
66522;SHT31;53349;53.538;8.584;2023-05-10T01:33:26;16.39;54.64
66522;SHT31;53349;53.538;8.584;2023-05-10T01:36:06;16.33;54.75
66522;SHT31;53349;53.538;8.584;2023-05-10T01:38:48;16.28;54.24
66522;SHT31;53349;53.538;8.584;2023-05-10T01:41:37;16.26;53.94
66522;SHT31;53349;53.538;8.584;2023-05-10T01:44:23;16.24;53.66
66522;SHT31;53349;53.538;8.584;2023-05-10T01:46:55;16.24;53.05
66522;SHT31;53349;53.538;8.584;2023-05-10T01:49:30;16.21;52.79
66522;SHT31;53349;53.538;8.584;2023-05-10T01:52:00;16.22;52.58
66522;SHT31;53349;53.538;8.584;2023-05-10T01:54:29;16.22;52.28
66522;SHT31;53349;53.538;8.584;2023-05-10T01:57:02;16.15;52.00
66522;SHT31;53349;53.538;8.584;2023-05-10T01:59:33;16.17;51.97
66522;SHT31;53349;53.538;8.584;2023-05-10T02:02:00;16.14;51.68
66522;SHT31;53349;53.538;8.584;2023-05-10T02:04:27;16.12;51.29
66522;SHT31;53349;53.538;8.584;2023-05-10T02:06:53;16.17;51.35
66522;SHT31;53349;53.538;8.584;2023-05-10T02:09:21;16.14;51.16
66522;SHT31;53349;53.538;8.584;2023-05-10T02:11:47;16.11;51.00
66522;SHT31;53349;53.538;8.584;2023-05-10T02:14:15;16.12;51.41
66522;SHT31;53349;53.538;8.584;2023-05-10T02:16:42;16.08;50.99
66522;SHT31;53349;53.538;8.584;2023-05-10T02:19:10;16.04;51.03
66522;SHT31;53349;53.538;8.584;2023-05-10T02:21:39;16.01;50.90
66522;SHT31;53349;53.538;8.584;2023-05-10T02:24:05;16.02;51.25
66522;SHT31;53349;53.538;8.584;2023-05-10T02:26:32;15.98;51.04
66522;SHT31;53349;53.538;8.584;2023-05-10T02:29:02;15.98;51.04
66522;SHT31;53349;53.538;8.584;2023-05-10T02:31:29;15.95;51.18
66522;SHT31;53349;53.538;8.584;2023-05-10T02:33:57;15.93;50.80
66522;SHT31;53349;53.538;8.584;2023-05-10T02:36:22;15.98;50.34
66522;SHT31;53349;53.538;8.584;2023-05-10T02:38:49;15.94;50.29
66522;SHT31;53349;53.538;8.584;2023-05-10T02:41:17;15.87;50.64
66522;SHT31;53349;53.538;8.584;2023-05-10T02:43:45;15.84;50.59
66522;SHT31;53349;53.538;8.584;2023-05-10T02:46:11;15.77;50.54
66522;SHT31;53349;53.538;8.584;2023-05-10T02:48:36;15.76;50.53
66522;SHT31;53349;53.538;8.584;2023-05-10T02:51:05;15.81;50.45
66522;SHT31;53349;53.538;8.584;2023-05-10T02:53:34;15.78;50.83
66522;SHT31;53349;53.538;8.584;2023-05-10T02:56:04;15.76;50.59
66522;SHT31;53349;53.538;8.584;2023-05-10T02:58:30;15.73;50.49
66522;SHT31;53349;53.538;8.584;2023-05-10T03:00:55;15.76;50.42
66522;SHT31;53349;53.538;8.584;2023-05-10T03:03:20;15.70;50.51
66522;SHT31;53349;53.538;8.584;2023-05-10T03:05:46;15.67;50.57
66522;SHT31;53349;53.538;8.584;2023-05-10T03:08:11;15.70;50.47
66522;SHT31;53349;53.538;8.584;2023-05-10T03:11:16;15.64;50.14
66522;SHT31;53349;53.538;8.584;2023-05-10T03:13:38;15.64;50.14
66522;SHT31;53349;53.538;8.584;2023-05-10T03:16:08;15.60;50.35
66522;SHT31;53349;53.538;8.584;2023-05-10T03:18:48;15.60;50.46
66522;SHT31;53349;53.538;8.584;2023-05-10T03:21:17;15.54;50.61
66522;SHT31;53349;53.538;8.584;2023-05-10T03:24:07;15.51;50.62
66522;SHT31;53349;53.538;8.584;2023-05-10T03:26:33;15.47;50.83
66522;SHT31;53349;53.538;8.584;2023-05-10T03:28:59;15.49;51.02
66522;SHT31;53349;53.538;8.584;2023-05-10T03:31:25;15.49;51.25
66522;SHT31;53349;53.538;8.584;2023-05-10T03:33:52;15.49;51.70
66522;SHT31;53349;53.538;8.584;2023-05-10T03:36:19;15.51;51.28
66522;SHT31;53349;53.538;8.584;2023-05-10T03:38:45;15.53;51.60
66522;SHT31;53349;53.538;8.584;2023-05-10T03:41:10;15.50;51.30
66522;SHT31;53349;53.538;8.584;2023-05-10T03:43:35;15.53;51.60
66522;SHT31;53349;53.538;8.584;2023-05-10T03:46:04;15.46;51.76
66522;SHT31;53349;53.538;8.584;2023-05-10T03:48:31;15.44;52.03
66522;SHT31;53349;53.538;8.584;2023-05-10T03:50:57;15.44;52.16
66522;SHT31;53349;53.538;8.584;2023-05-10T03:53:22;15.42;52.42
66522;SHT31;53349;53.538;8.584;2023-05-10T03:55:48;15.43;53.10
66522;SHT31;53349;53.538;8.584;2023-05-10T03:58:13;15.35;53.03
66522;SHT31;53349;53.538;8.584;2023-05-10T04:00:38;15.32;53.17
66522;SHT31;53349;53.538;8.584;2023-05-10T04:03:04;15.29;53.59
66522;SHT31;53349;53.538;8.584;2023-05-10T04:05:29;15.26;53.70
66522;SHT31;53349;53.538;8.584;2023-05-10T04:07:54;15.26;54.39
66522;SHT31;53349;53.538;8.584;2023-05-10T04:10:20;15.23;55.21
66522;SHT31;53349;53.538;8.584;2023-05-10T04:12:45;15.20;55.13
66522;SHT31;53349;53.538;8.584;2023-05-10T04:15:11;15.15;55.90
66522;SHT31;53349;53.538;8.584;2023-05-10T04:17:36;15.15;56.10
66522;SHT31;53349;53.538;8.584;2023-05-10T04:20:01;15.15;55.95
66522;SHT31;53349;53.538;8.584;2023-05-10T04:22:27;15.12;56.57
66522;SHT31;53349;53.538;8.584;2023-05-10T04:24:52;15.15;57.56
66522;SHT31;53349;53.538;8.584;2023-05-10T04:27:18;15.08;58.02
66522;SHT31;53349;53.538;8.584;2023-05-10T04:29:43;15.08;57.00
66522;SHT31;53349;53.538;8.584;2023-05-10T04:32:08;15.08;57.13
66522;SHT31;53349;53.538;8.584;2023-05-10T04:34:34;15.08;57.38
66522;SHT31;53349;53.538;8.584;2023-05-10T04:36:59;15.06;57.85
66522;SHT31;53349;53.538;8.584;2023-05-10T04:39:32;15.02;57.71
66522;SHT31;53349;53.538;8.584;2023-05-10T04:41:58;14.96;57.32
66522;SHT31;53349;53.538;8.584;2023-05-10T04:44:24;15.00;57.70
66522;SHT31;53349;53.538;8.584;2023-05-10T04:46:49;15.02;58.40
66522;SHT31;53349;53.538;8.584;2023-05-10T04:49:15;15.02;59.61
66522;SHT31;53349;53.538;8.584;2023-05-10T04:51:40;14.96;60.88
66522;SHT31;53349;53.538;8.584;2023-05-10T04:54:05;14.96;61.48
66522;SHT31;53349;53.538;8.584;2023-05-10T04:56:31;14.98;62.15
66522;SHT31;53349;53.538;8.584;2023-05-10T04:58:56;14.95;62.87
66522;SHT31;53349;53.538;8.584;2023-05-10T05:01:21;14.93;63.64
66522;SHT31;53349;53.538;8.584;2023-05-10T05:03:47;14.86;63.80
66522;SHT31;53349;53.538;8.584;2023-05-10T05:06:12;14.91;64.12
66522;SHT31;53349;53.538;8.584;2023-05-10T05:08:37;14.86;64.03
66522;SHT31;53349;53.538;8.584;2023-05-10T05:11:03;14.75;64.29
66522;SHT31;53349;53.538;8.584;2023-05-10T05:13:28;14.74;64.57
66522;SHT31;53349;53.538;8.584;2023-05-10T05:15:54;14.67;64.91
66522;SHT31;53349;53.538;8.584;2023-05-10T05:18:19;14.68;65.06
66522;SHT31;53349;53.538;8.584;2023-05-10T05:20:45;14.69;65.25
66522;SHT31;53349;53.538;8.584;2023-05-10T05:23:10;14.63;65.01
66522;SHT31;53349;53.538;8.584;2023-05-10T05:25:36;14.67;65.58
66522;SHT31;53349;53.538;8.584;2023-05-10T05:28:02;14.57;65.08
66522;SHT31;53349;53.538;8.584;2023-05-10T05:30:29;14.55;65.23
66522;SHT31;53349;53.538;8.584;2023-05-10T05:32:54;14.54;65.74
66522;SHT31;53349;53.538;8.584;2023-05-10T05:35:20;14.58;66.18
66522;SHT31;53349;53.538;8.584;2023-05-10T05:37:45;14.55;66.47
66522;SHT31;53349;53.538;8.584;2023-05-10T05:40:15;14.47;65.88
66522;SHT31;53349;53.538;8.584;2023-05-10T05:42:40;14.38;66.17
66522;SHT31;53349;53.538;8.584;2023-05-10T05:45:06;14.40;66.15
66522;SHT31;53349;53.538;8.584;2023-05-10T05:47:31;14.40;66.40
66522;SHT31;53349;53.538;8.584;2023-05-10T05:49:57;14.38;66.50
66522;SHT31;53349;53.538;8.584;2023-05-10T05:52:22;14.34;66.21
66522;SHT31;53349;53.538;8.584;2023-05-10T05:54:47;14.33;66.74
66522;SHT31;53349;53.538;8.584;2023-05-10T05:57:13;14.21;66.94
66522;SHT31;53349;53.538;8.584;2023-05-10T05:59:38;14.16;67.69
66522;SHT31;53349;53.538;8.584;2023-05-10T06:02:03;14.20;67.68
66522;SHT31;53349;53.538;8.584;2023-05-10T06:04:28;14.24;68.19
66522;SHT31;53349;53.538;8.584;2023-05-10T06:06:55;14.31;68.52
66522;SHT31;53349;53.538;8.584;2023-05-10T06:09:21;14.31;68.51
66522;SHT31;53349;53.538;8.584;2023-05-10T06:11:46;14.24;69.09
66522;SHT31;53349;53.538;8.584;2023-05-10T06:14:11;14.23;69.51
66522;SHT31;53349;53.538;8.584;2023-05-10T06:16:37;14.17;69.77
66522;SHT31;53349;53.538;8.584;2023-05-10T06:19:02;14.00;69.68
66522;SHT31;53349;53.538;8.584;2023-05-10T06:21:28;13.96;69.91
66522;SHT31;53349;53.538;8.584;2023-05-10T06:23:53;13.85;70.44
66522;SHT31;53349;53.538;8.584;2023-05-10T06:26:18;13.69;70.26
66522;SHT31;53349;53.538;8.584;2023-05-10T06:28:43;13.63;70.23
66522;SHT31;53349;53.538;8.584;2023-05-10T06:31:10;13.59;70.87
66522;SHT31;53349;53.538;8.584;2023-05-10T06:33:35;13.58;70.62
66522;SHT31;53349;53.538;8.584;2023-05-10T06:36:01;13.51;71.09
66522;SHT31;53349;53.538;8.584;2023-05-10T06:38:26;13.41;71.50
66522;SHT31;53349;53.538;8.584;2023-05-10T06:40:51;13.42;71.41
66522;SHT31;53349;53.538;8.584;2023-05-10T06:43:18;13.46;71.74
66522;SHT31;53349;53.538;8.584;2023-05-10T06:45:43;13.45;71.78
66522;SHT31;53349;53.538;8.584;2023-05-10T06:48:09;13.46;71.51
66522;SHT31;53349;53.538;8.584;2023-05-10T06:50:34;13.45;71.48
66522;SHT31;53349;53.538;8.584;2023-05-10T06:53:00;13.35;70.96
66522;SHT31;53349;53.538;8.584;2023-05-10T06:55:27;13.32;71.45
66522;SHT31;53349;53.538;8.584;2023-05-10T06:57:53;13.32;71.54
66522;SHT31;53349;53.538;8.584;2023-05-10T07:00:20;13.38;71.87
66522;SHT31;53349;53.538;8.584;2023-05-10T07:02:46;13.42;72.02
66522;SHT31;53349;53.538;8.584;2023-05-10T07:05:12;13.44;71.74
66522;SHT31;53349;53.538;8.584;2023-05-10T07:07:37;13.46;72.16
66522;SHT31;53349;53.538;8.584;2023-05-10T07:10:03;13.42;72.64
66522;SHT31;53349;53.538;8.584;2023-05-10T07:12:28;13.42;73.13
66522;SHT31;53349;53.538;8.584;2023-05-10T07:14:54;13.35;73.51
66522;SHT31;53349;53.538;8.584;2023-05-10T07:17:20;13.28;73.88
66522;SHT31;53349;53.538;8.584;2023-05-10T07:19:46;13.31;73.94
66522;SHT31;53349;53.538;8.584;2023-05-10T07:22:12;13.38;73.93
66522;SHT31;53349;53.538;8.584;2023-05-10T07:24:38;13.39;73.75
66522;SHT31;53349;53.538;8.584;2023-05-10T07:27:04;13.36;74.28
66522;SHT31;53349;53.538;8.584;2023-05-10T07:29:29;13.46;74.44
66522;SHT31;53349;53.538;8.584;2023-05-10T07:31:55;13.46;74.82
66522;SHT31;53349;53.538;8.584;2023-05-10T07:34:20;13.49;74.89
66522;SHT31;53349;53.538;8.584;2023-05-10T07:36:46;13.49;74.58
66522;SHT31;53349;53.538;8.584;2023-05-10T07:39:11;13.52;74.73
66522;SHT31;53349;53.538;8.584;2023-05-10T07:41:36;13.59;75.21
66522;SHT31;53349;53.538;8.584;2023-05-10T07:44:02;13.70;75.51
66522;SHT31;53349;53.538;8.584;2023-05-10T07:46:27;13.67;75.46
66522;SHT31;53349;53.538;8.584;2023-05-10T07:48:52;13.70;75.30
66522;SHT31;53349;53.538;8.584;2023-05-10T07:51:17;13.67;75.06
66522;SHT31;53349;53.538;8.584;2023-05-10T07:53:43;13.67;75.24
66522;SHT31;53349;53.538;8.584;2023-05-10T07:56:25;13.72;75.30
66522;SHT31;53349;53.538;8.584;2023-05-10T07:58:51;13.77;75.45
66522;SHT31;53349;53.538;8.584;2023-05-10T08:01:16;13.96;75.38
66522;SHT31;53349;53.538;8.584;2023-05-10T08:03:42;13.96;75.57
66522;SHT31;53349;53.538;8.584;2023-05-10T08:06:07;14.07;75.56
66522;SHT31;53349;53.538;8.584;2023-05-10T08:08:33;14.17;75.55
66522;SHT31;53349;53.538;8.584;2023-05-10T08:10:58;14.17;75.85
66522;SHT31;53349;53.538;8.584;2023-05-10T08:13:23;14.09;76.02
66522;SHT31;53349;53.538;8.584;2023-05-10T08:15:49;14.26;75.87
66522;SHT31;53349;53.538;8.584;2023-05-10T08:18:14;14.33;76.04
66522;SHT31;53349;53.538;8.584;2023-05-10T08:20:39;14.47;75.93
66522;SHT31;53349;53.538;8.584;2023-05-10T08:23:04;14.52;75.65
66522;SHT31;53349;53.538;8.584;2023-05-10T08:25:32;14.57;75.90
66522;SHT31;53349;53.538;8.584;2023-05-10T08:27:57;14.71;75.88
66522;SHT31;53349;53.538;8.584;2023-05-10T08:30:23;14.77;75.83
66522;SHT31;53349;53.538;8.584;2023-05-10T08:32:48;14.84;75.57
66522;SHT31;53349;53.538;8.584;2023-05-10T08:35:14;14.89;75.50
66522;SHT31;53349;53.538;8.584;2023-05-10T08:37:39;14.91;75.52
66522;SHT31;53349;53.538;8.584;2023-05-10T08:40:06;14.98;75.48
66522;SHT31;53349;53.538;8.584;2023-05-10T08:42:34;14.99;75.84
66522;SHT31;53349;53.538;8.584;2023-05-10T08:45:02;15.05;75.69
66522;SHT31;53349;53.538;8.584;2023-05-10T08:47:29;15.09;75.73
66522;SHT31;53349;53.538;8.584;2023-05-10T08:49:57;15.18;75.78
66522;SHT31;53349;53.538;8.584;2023-05-10T08:52:25;15.18;75.68
66522;SHT31;53349;53.538;8.584;2023-05-10T08:54:52;15.27;75.87
66522;SHT31;53349;53.538;8.584;2023-05-10T08:57:19;15.37;75.88
66522;SHT31;53349;53.538;8.584;2023-05-10T08:59:44;15.43;76.02
66522;SHT31;53349;53.538;8.584;2023-05-10T09:02:11;15.56;76.13
66522;SHT31;53349;53.538;8.584;2023-05-10T09:04:37;15.61;75.88
66522;SHT31;53349;53.538;8.584;2023-05-10T09:07:02;15.57;75.57
66522;SHT31;53349;53.538;8.584;2023-05-10T09:09:29;15.63;75.11
66522;SHT31;53349;53.538;8.584;2023-05-10T09:11:57;15.61;74.81
66522;SHT31;53349;53.538;8.584;2023-05-10T09:14:24;15.66;74.91
66522;SHT31;53349;53.538;8.584;2023-05-10T09:16:50;15.76;74.95
66522;SHT31;53349;53.538;8.584;2023-05-10T09:19:15;15.84;74.82
66522;SHT31;53349;53.538;8.584;2023-05-10T09:21:41;15.91;74.27
66522;SHT31;53349;53.538;8.584;2023-05-10T09:24:08;16.05;74.10
66522;SHT31;53349;53.538;8.584;2023-05-10T09:26:34;16.14;73.95
66522;SHT31;53349;53.538;8.584;2023-05-10T09:29:00;16.24;73.78
66522;SHT31;53349;53.538;8.584;2023-05-10T09:31:48;16.33;73.71
66522;SHT31;53349;53.538;8.584;2023-05-10T09:34:18;16.44;73.45
66522;SHT31;53349;53.538;8.584;2023-05-10T09:36:57;16.46;73.39
66522;SHT31;53349;53.538;8.584;2023-05-10T09:39:37;16.46;73.14
66522;SHT31;53349;53.538;8.584;2023-05-10T09:42:05;16.41;73.30
66522;SHT31;53349;53.538;8.584;2023-05-10T09:44:32;16.36;72.65
66522;SHT31;53349;53.538;8.584;2023-05-10T09:46:58;16.29;72.09
66522;SHT31;53349;53.538;8.584;2023-05-10T09:49:24;16.30;71.74
66522;SHT31;53349;53.538;8.584;2023-05-10T09:52:06;16.28;71.69
66522;SHT31;53349;53.538;8.584;2023-05-10T09:54:33;16.29;72.00
66522;SHT31;53349;53.538;8.584;2023-05-10T09:56:59;16.35;72.26
66522;SHT31;53349;53.538;8.584;2023-05-10T09:59:26;16.41;72.18
66522;SHT31;53349;53.538;8.584;2023-05-10T10:01:58;16.45;71.97
66522;SHT31;53349;53.538;8.584;2023-05-10T10:04:27;16.48;71.74
66522;SHT31;53349;53.538;8.584;2023-05-10T10:07:03;16.48;71.15
66522;SHT31;53349;53.538;8.584;2023-05-10T10:09:29;16.44;71.22
66522;SHT31;53349;53.538;8.584;2023-05-10T10:11:55;16.42;71.34
66522;SHT31;53349;53.538;8.584;2023-05-10T10:14:21;16.38;71.48
66522;SHT31;53349;53.538;8.584;2023-05-10T10:16:51;16.32;71.88
66522;SHT31;53349;53.538;8.584;2023-05-10T10:19:20;16.25;72.15
66522;SHT31;53349;53.538;8.584;2023-05-10T10:21:46;16.21;72.09
66522;SHT31;53349;53.538;8.584;2023-05-10T10:24:11;16.19;72.21
66522;SHT31;53349;53.538;8.584;2023-05-10T10:26:37;16.22;72.34
66522;SHT31;53349;53.538;8.584;2023-05-10T10:29:19;16.25;72.33
66522;SHT31;53349;53.538;8.584;2023-05-10T10:34:30;16.42;71.94
66522;SHT31;53349;53.538;8.584;2023-05-10T10:36:56;16.52;71.88
66522;SHT31;53349;53.538;8.584;2023-05-10T10:39:23;16.55;71.35
66522;SHT31;53349;53.538;8.584;2023-05-10T10:41:51;16.65;71.06
66522;SHT31;53349;53.538;8.584;2023-05-10T10:44:23;16.73;70.68
66522;SHT31;53349;53.538;8.584;2023-05-10T10:49:37;16.69;70.13
66522;SHT31;53349;53.538;8.584;2023-05-10T10:52:23;16.59;70.23
66522;SHT31;53349;53.538;8.584;2023-05-10T10:57:18;16.52;71.33
66522;SHT31;53349;53.538;8.584;2023-05-10T10:59:44;16.49;71.28
66522;SHT31;53349;53.538;8.584;2023-05-10T11:02:10;16.45;71.44
66522;SHT31;53349;53.538;8.584;2023-05-10T11:04:43;16.41;71.15
66522;SHT31;53349;53.538;8.584;2023-05-10T11:07:19;16.32;70.71
66522;SHT31;53349;53.538;8.584;2023-05-10T11:09:47;16.42;71.01
66522;SHT31;53349;53.538;8.584;2023-05-10T11:12:12;16.46;71.22
66522;SHT31;53349;53.538;8.584;2023-05-10T11:14:37;16.55;71.37
66522;SHT31;53349;53.538;8.584;2023-05-10T11:17:22;16.67;71.24
66522;SHT31;53349;53.538;8.584;2023-05-10T11:20:09;16.76;71.08
66522;SHT31;53349;53.538;8.584;2023-05-10T11:22:55;16.79;70.75
66522;SHT31;53349;53.538;8.584;2023-05-10T11:25:26;16.79;70.74
66522;SHT31;53349;53.538;8.584;2023-05-10T11:27:52;16.76;71.18
66522;SHT31;53349;53.538;8.584;2023-05-10T11:30:18;16.80;71.38
66522;SHT31;53349;53.538;8.584;2023-05-10T11:32:43;16.84;71.10
66522;SHT31;53349;53.538;8.584;2023-05-10T11:35:10;16.81;71.22
66522;SHT31;53349;53.538;8.584;2023-05-10T11:37:37;16.91;71.32
66522;SHT31;53349;53.538;8.584;2023-05-10T11:40:03;16.93;70.98
66522;SHT31;53349;53.538;8.584;2023-05-10T11:42:29;16.88;70.95
66522;SHT31;53349;53.538;8.584;2023-05-10T11:44:55;16.86;70.97
66522;SHT31;53349;53.538;8.584;2023-05-10T11:47:21;16.77;70.88
66522;SHT31;53349;53.538;8.584;2023-05-10T11:49:47;16.73;70.96
66522;SHT31;53349;53.538;8.584;2023-05-10T11:52:13;16.72;70.81
66522;SHT31;53349;53.538;8.584;2023-05-10T11:54:53;16.72;70.70
66522;SHT31;53349;53.538;8.584;2023-05-10T11:57:21;16.70;70.91
66522;SHT31;53349;53.538;8.584;2023-05-10T11:59:54;16.76;70.70
66522;SHT31;53349;53.538;8.584;2023-05-10T12:02:19;16.69;70.42
66522;SHT31;53349;53.538;8.584;2023-05-10T12:04:45;16.72;70.36
66522;SHT31;53349;53.538;8.584;2023-05-10T12:07:10;16.70;70.32
66522;SHT31;53349;53.538;8.584;2023-05-10T12:09:36;16.73;70.18
66522;SHT31;53349;53.538;8.584;2023-05-10T12:12:02;16.79;69.97
66522;SHT31;53349;53.538;8.584;2023-05-10T12:14:27;16.84;69.98
66522;SHT31;53349;53.538;8.584;2023-05-10T12:16:52;16.80;70.16
66522;SHT31;53349;53.538;8.584;2023-05-10T12:19:19;16.79;70.02
66522;SHT31;53349;53.538;8.584;2023-05-10T12:21:46;16.73;69.88
66522;SHT31;53349;53.538;8.584;2023-05-10T12:24:15;16.69;70.03
66522;SHT31;53349;53.538;8.584;2023-05-10T12:26:45;16.67;70.20
66522;SHT31;53349;53.538;8.584;2023-05-10T12:29:19;16.66;70.97
66522;SHT31;53349;53.538;8.584;2023-05-10T12:31:52;16.69;70.76
66522;SHT31;53349;53.538;8.584;2023-05-10T12:34:30;16.70;70.53
66522;SHT31;53349;53.538;8.584;2023-05-10T12:36:56;16.75;70.39
66522;SHT31;53349;53.538;8.584;2023-05-10T12:39:22;16.69;70.47
66522;SHT31;53349;53.538;8.584;2023-05-10T12:41:47;16.69;70.55
66522;SHT31;53349;53.538;8.584;2023-05-10T12:44:14;16.72;70.88
66522;SHT31;53349;53.538;8.584;2023-05-10T12:46:39;16.75;70.84
66522;SHT31;53349;53.538;8.584;2023-05-10T12:49:06;16.75;71.02
66522;SHT31;53349;53.538;8.584;2023-05-10T12:51:31;16.76;70.80
66522;SHT31;53349;53.538;8.584;2023-05-10T12:53:56;16.80;71.00
66522;SHT31;53349;53.538;8.584;2023-05-10T12:56:25;16.84;70.94
66522;SHT31;53349;53.538;8.584;2023-05-10T12:58:50;16.88;70.87
66522;SHT31;53349;53.538;8.584;2023-05-10T13:01:16;16.90;71.01
66522;SHT31;53349;53.538;8.584;2023-05-10T13:03:43;16.80;71.26
66522;SHT31;53349;53.538;8.584;2023-05-10T13:06:09;16.67;71.58
66522;SHT31;53349;53.538;8.584;2023-05-10T13:08:34;16.62;72.17
66522;SHT31;53349;53.538;8.584;2023-05-10T13:11:01;16.46;72.65
66522;SHT31;53349;53.538;8.584;2023-05-10T13:13:27;16.35;73.17
66522;SHT31;53349;53.538;8.584;2023-05-10T13:15:52;16.28;73.38
66522;SHT31;53349;53.538;8.584;2023-05-10T13:18:18;16.18;73.41
66522;SHT31;53349;53.538;8.584;2023-05-10T13:20:43;16.17;73.38
66522;SHT31;53349;53.538;8.584;2023-05-10T13:23:08;16.11;73.33
66522;SHT31;53349;53.538;8.584;2023-05-10T13:25:34;16.11;73.29
66522;SHT31;53349;53.538;8.584;2023-05-10T13:27:59;16.08;73.46
66522;SHT31;53349;53.538;8.584;2023-05-10T13:30:24;16.07;73.23
66522;SHT31;53349;53.538;8.584;2023-05-10T13:32:50;16.07;73.15
66522;SHT31;53349;53.538;8.584;2023-05-10T13:35:15;16.08;73.04
66522;SHT31;53349;53.538;8.584;2023-05-10T13:37:40;16.08;72.90
66522;SHT31;53349;53.538;8.584;2023-05-10T13:40:06;16.02;72.71
66522;SHT31;53349;53.538;8.584;2023-05-10T13:42:31;15.98;72.83
66522;SHT31;53349;53.538;8.584;2023-05-10T13:45:01;16.00;72.96
66522;SHT31;53349;53.538;8.584;2023-05-10T13:47:27;16.04;72.95
66522;SHT31;53349;53.538;8.584;2023-05-10T13:49:52;16.02;73.40
66522;SHT31;53349;53.538;8.584;2023-05-10T13:52:18;15.91;73.64
66522;SHT31;53349;53.538;8.584;2023-05-10T13:54:43;15.87;73.92
66522;SHT31;53349;53.538;8.584;2023-05-10T13:57:09;15.77;73.80
66522;SHT31;53349;53.538;8.584;2023-05-10T13:59:35;15.67;73.64
66522;SHT31;53349;53.538;8.584;2023-05-10T14:02:00;15.61;73.68
66522;SHT31;53349;53.538;8.584;2023-05-10T14:04:26;15.57;73.66
66522;SHT31;53349;53.538;8.584;2023-05-10T14:06:51;15.56;73.58
66522;SHT31;53349;53.538;8.584;2023-05-10T14:09:16;15.54;73.79
66522;SHT31;53349;53.538;8.584;2023-05-10T14:11:43;15.50;73.91
66522;SHT31;53349;53.538;8.584;2023-05-10T14:14:10;15.44;74.37
66522;SHT31;53349;53.538;8.584;2023-05-10T14:16:35;15.40;74.42
66522;SHT31;53349;53.538;8.584;2023-05-10T14:19:00;15.40;74.34
66522;SHT31;53349;53.538;8.584;2023-05-10T14:21:26;15.43;74.47
66522;SHT31;53349;53.538;8.584;2023-05-10T14:23:51;15.47;74.15
66522;SHT31;53349;53.538;8.584;2023-05-10T14:26:18;15.46;73.88
66522;SHT31;53349;53.538;8.584;2023-05-10T14:28:43;15.42;73.97
66522;SHT31;53349;53.538;8.584;2023-05-10T14:31:08;15.33;73.94
66522;SHT31;53349;53.538;8.584;2023-05-10T14:33:34;15.36;74.08
66522;SHT31;53349;53.538;8.584;2023-05-10T14:35:59;15.32;74.11
66522;SHT31;53349;53.538;8.584;2023-05-10T14:38:25;15.32;74.01
66522;SHT31;53349;53.538;8.584;2023-05-10T14:40:50;15.33;73.95
66522;SHT31;53349;53.538;8.584;2023-05-10T14:43:16;15.40;73.77
66522;SHT31;53349;53.538;8.584;2023-05-10T14:45:41;15.46;74.12
66522;SHT31;53349;53.538;8.584;2023-05-10T14:48:07;15.46;73.79
66522;SHT31;53349;53.538;8.584;2023-05-10T14:50:35;15.44;73.90
66522;SHT31;53349;53.538;8.584;2023-05-10T14:53:00;15.32;73.68
66522;SHT31;53349;53.538;8.584;2023-05-10T14:55:26;15.35;73.71
66522;SHT31;53349;53.538;8.584;2023-05-10T14:57:51;15.29;73.55
66522;SHT31;53349;53.538;8.584;2023-05-10T15:00:18;15.33;73.48
66522;SHT31;53349;53.538;8.584;2023-05-10T15:02:47;15.33;73.35
66522;SHT31;53349;53.538;8.584;2023-05-10T15:05:12;15.39;72.82
66522;SHT31;53349;53.538;8.584;2023-05-10T15:07:37;15.42;72.91
66522;SHT31;53349;53.538;8.584;2023-05-10T15:10:03;15.37;72.51
66522;SHT31;53349;53.538;8.584;2023-05-10T15:12:28;15.44;72.66
66522;SHT31;53349;53.538;8.584;2023-05-10T15:14:54;15.50;72.75
66522;SHT31;53349;53.538;8.584;2023-05-10T15:17:20;15.53;72.69
66522;SHT31;53349;53.538;8.584;2023-05-10T15:19:46;15.67;72.89
66522;SHT31;53349;53.538;8.584;2023-05-10T15:22:11;15.74;72.69
66522;SHT31;53349;53.538;8.584;2023-05-10T15:24:37;15.76;72.17
66522;SHT31;53349;53.538;8.584;2023-05-10T15:27:05;15.74;72.04
66522;SHT31;53349;53.538;8.584;2023-05-10T15:29:31;15.77;72.17
66522;SHT31;53349;53.538;8.584;2023-05-10T15:31:56;15.73;72.13
66522;SHT31;53349;53.538;8.584;2023-05-10T15:34:24;15.76;72.07
66522;SHT31;53349;53.538;8.584;2023-05-10T15:36:52;15.76;72.10
66522;SHT31;53349;53.538;8.584;2023-05-10T15:39:18;15.77;71.92
66522;SHT31;53349;53.538;8.584;2023-05-10T15:41:43;15.74;71.82
66522;SHT31;53349;53.538;8.584;2023-05-10T15:44:10;15.70;71.83
66522;SHT31;53349;53.538;8.584;2023-05-10T15:46:36;15.67;72.20